Latest Weather Observations for Mount Keith

IDW60801

Issued at 6:03 pm WST Wednesday 7 December 2016 (issued every 30 minutes, with the page automatically refreshed every 10 minutes)

About weather observations | Map of weather stations | Latest weather observations for WA | Other Formats
Station Details ID: 512019 Name: MOUNT KEITH Lat: -27.29 Lon: 120.55 Height: 542.33 m
Data from the previous 72 hours. | See also: Recent months for locations in Western Australia
Date/Time
WST
Temp
°C
App
Temp
°C
Dew
Point
°C
Rel
Hum
%
Delta-T
°C
Wind Press
QNH
hPa
Press
MSL
hPa
Rain since
9am
mm
Dir  Spd
km/h
Gust
km/h
Spd
kts
Gust
kts
07/06:00pm 34.5 27.2 -6.3 7 18.6 SW 24 35 13 19 1011.0 1006.9 0.0
07/05:30pm 35.7 28.9 -5.4 7 19.2 SW 22 32 12 17 1010.8 1006.7 0.0
07/05:00pm 35.8 28.4 -3.5 8 18.9 SW 26 37 14 20 1010.6 1006.5 0.0
07/04:30pm 36.0 29.8 -3.4 8 19.0 WSW 20 33 11 18 1010.6 1006.5 0.0
07/04:00pm 36.7 28.6 -2.9 8 19.4 WSW 30 46 16 25 1010.6 1006.5 0.0
07/03:30pm 36.7 28.2 -2.9 8 19.3 SW 32 43 17 23 1010.7 1006.6 0.0
07/03:00pm 36.4 29.3 -1.5 9 18.9 SW 26 41 14 22 1010.9 1006.8 0.0
07/02:30pm 36.4 29.6 -1.5 9 18.9 WSW 24 35 13 19 1011.2 1007.1 0.0
07/02:00pm 35.9 28.3 -1.9 9 18.7 SW 28 41 15 22 1011.5 1007.4 0.0
07/01:30pm 35.6 28.8 -2.1 9 18.5 WSW 24 35 13 19 1011.7 1007.6 0.0
07/01:00pm 36.0 28.6 -3.4 8 19.0 SW 26 39 14 21 1012.1 1008.0 0.0
07/12:42pm 35.6 28.6 -3.7 8 18.8 WSW 24 46 13 25 1012.3 1008.2 0.0
07/12:30pm 35.8 28.2 -5.3 7 19.2 SW 26 39 14 21 1012.3 1008.2 0.0
07/12:00pm 34.6 28.0 -2.9 9 18.1 SW 22 37 12 20 1012.8 1008.8 0.0
07/11:30am 34.2 28.2 -3.2 9 17.9 W 19 28 10 15 1013.2 1009.1 0.0
07/11:00am 33.0 26.7 -4.0 9 17.3 SW 20 28 11 15 1013.6 1009.5 0.0
07/10:30am 32.1 26.1 -3.3 10 16.6 SSW 19 26 10 14 1013.9 1009.8 0.0
07/10:00am 31.1 24.9 -2.8 11 16.0 SSW 20 28 11 15 1014.2 1010.1 0.0
07/09:30am 30.9 23.7 -1.8 12 15.6 SSW 26 32 14 17 1013.9 1009.8 0.0
07/09:00am 30.3 23.6 -1.2 13 15.2 SSW 24 32 13 17 1014.0 1009.9 0.0
07/08:30am 28.4 22.0 -1.6 14 14.1 SSW 22 28 12 15 1013.9 1009.8 0.0
07/08:00am 27.4 20.2 -2.4 14 13.7 SSW 26 33 14 18 1013.7 1009.6 0.0
07/07:30am 26.5 19.7 -2.2 15 13.2 SSW 24 30 13 16 1013.8 1009.7 0.0
07/07:00am 25.2 19.3 -2.4 16 12.5 SSW 19 28 10 15 1013.7 1009.6 0.0
07/06:30am 25.0 19.3 -3.4 15 12.6 SSW 17 28 9 15 1013.5 1009.4 0.0
07/06:00am 24.1 17.8 -4.1 15 12.3 SSW 20 26 11 14 1012.0 1007.9 0.0
07/05:30am 23.2 17.1 -4.0 16 11.8 SSW 19 22 10 12 1011.5 1007.4 0.0
07/05:00am 23.1 17.4 -4.1 16 11.7 S 17 20 9 11 1011.0 1006.9 0.0
07/04:30am 23.6 17.3 -5.4 14 12.3 S 19 26 10 14 1010.7 1006.6 0.0
07/04:00am 24.2 18.0 -4.9 14 12.5 SSW 19 26 10 14 1010.5 1006.4 0.0
07/03:30am 24.8 18.3 -5.5 13 12.9 S 20 26 11 14 1010.1 1006.0 0.0
07/03:00am 25.3 18.7 -7.2 11 13.5 S 20 26 11 14 1010.0 1005.9 0.0
07/02:30am 25.8 19.2 -6.9 11 13.7 SSW 20 26 11 14 1010.1 1006.0 0.0
07/02:00am 25.8 19.4 -6.9 11 13.7 SSW 19 28 10 15 1010.1 1006.0 0.0
07/01:30am 25.7 19.3 -6.9 11 13.7 SSW 19 22 10 12 1010.2 1006.1 0.0
07/01:00am 26.9 20.5 -7.2 10 14.4 SSW 19 26 10 14 1010.4 1006.3 0.0
07/12:30am 27.4 21.5 -5.6 11 14.4 SW 17 20 9 11 1010.5 1006.4 0.0
07/12:00am 27.8 22.3 -5.3 11 14.6 SW 15 19 8 10 1010.6 1006.5 0.0
 
Date/Time
WST
Temp
°C
App
Temp
°C
Dew
Point
°C
Rel
Hum
%
Delta-T
°C
Wind Press
QNH
hPa
Press
MSL
hPa
Rain since
9am
mm
Dir  Spd
km/h
Gust
km/h
Spd
kts
Gust
kts
06/11:30pm 28.6 22.7 -6.0 10 15.1 SW 17 22 9 12 1010.6 1006.5 0.0
06/11:00pm 28.4 22.5 -6.1 10 15.0 SW 17 22 9 12 1010.8 1006.7 0.0
06/10:30pm 29.6 23.4 -5.2 10 15.5 SW 19 22 10 12 1011.0 1006.9 0.0
06/10:00pm 30.2 24.3 -6.1 9 16.1 WSW 17 22 9 12 1011.2 1007.1 0.0
06/09:30pm 29.7 24.5 -6.5 9 15.8 W 13 15 7 8 1011.0 1006.9 0.0
06/09:00pm 30.7 25.9 -5.8 9 16.3 WSW 11 15 6 8 1010.9 1006.8 0.0
06/08:30pm 32.1 26.5 -6.3 8 17.2 W 15 17 8 9 1010.6 1006.5 0.0
06/08:00pm 32.9 27.4 -5.7 8 17.6 WSW 15 19 8 10 1010.4 1006.3 0.0
06/07:30pm 33.4 28.8 -3.7 9 17.5 WSW 11 15 6 8 1010.2 1006.1 0.0
06/07:00pm 34.5 29.1 -4.5 8 18.3 WSW 15 20 8 11 1009.9 1005.8 0.0
06/06:30pm 35.7 29.6 -3.6 8 18.9 SW 19 24 10 13 1009.6 1005.5 0.0
06/06:00pm 36.3 30.7 -3.2 8 19.2 W 17 26 9 14 1009.4 1005.2 0.0
06/05:30pm 37.0 30.1 -2.7 8 19.5 W 24 33 13 18 1009.1 1005.0 0.0
06/05:00pm 37.0 32.8 -1.1 9 19.2 W 11 20 6 11 1009.0 1004.9 0.0
06/04:30pm 37.4 31.7 -0.8 9 19.4 NW 19 32 10 17 1009.1 1005.0 0.0
06/04:00pm 37.5 32.6 -0.7 9 19.4 WNW 15 28 8 15 1009.3 1005.1 0.0
06/03:30pm 36.9 32.7 -1.1 9 19.1 NNW 11 20 6 11 1009.5 1005.4 0.0
06/03:00pm 36.9 31.2 -1.1 9 19.1 WNW 19 33 10 18 1009.9 1005.8 0.0
06/02:36pm 36.8 30.7 0.2 10 18.8 W 22 41 12 22 1010.1 1006.0 0.0
06/02:30pm 36.4 31.2 -0.1 10 18.6 W 17 35 9 19 1010.2 1006.1 0.0
06/02:00pm 37.2 30.9 -0.9 9 19.3 WSW 22 43 12 23 1010.5 1006.4 0.0
06/01:30pm 35.5 29.8 0.6 11 17.9 WNW 20 35 11 19 1011.0 1006.9 0.0
06/01:00pm 36.1 31.0 1.0 11 18.2 WSW 17 33 9 18 1011.4 1007.3 0.0
06/12:30pm 34.9 29.1 0.1 11 17.6 W 20 33 11 18 1011.9 1007.8 0.0
06/12:00pm 34.6 28.4 -0.1 11 17.5 NW 22 32 12 17 1012.3 1008.2 0.0
06/11:30am 34.2 30.6 2.9 14 16.5 SW 11 19 6 10 1012.8 1008.8 0.0
06/11:00am 33.4 29.9 3.3 15 15.9 W 11 19 6 10 1013.2 1009.1 0.0
06/10:30am 33.4 30.4 4.2 16 15.7 SSE 9 22 5 12 1013.6 1009.5 0.0
06/10:00am 31.9 28.2 6.2 20 14.1 NNE 15 26 8 14 1013.9 1009.8 0.0
06/09:30am 30.9 27.0 8.6 25 12.7 ENE 19 28 10 15 1014.0 1009.9 0.0
06/09:00am 30.2 26.6 9.7 28 11.8 ENE 19 28 10 15 1014.3 1010.2 0.0
06/08:30am 28.8 25.9 10.9 33 10.5 ENE 17 26 9 14 1014.5 1010.5 0.0
06/08:00am 28.4 25.1 11.0 34 10.2 ENE 19 26 10 14 1014.4 1010.3 0.0
06/07:30am 27.5 24.1 11.1 36 9.6 E 20 30 11 16 1014.2 1010.1 0.0
06/07:00am 26.2 23.2 10.8 38 8.9 E 17 26 9 14 1014.0 1009.9 0.0
06/06:30am 24.8 22.4 9.9 39 8.4 ESE 13 22 7 12 1013.9 1009.8 0.0
06/06:00am 23.3 20.0 4.8 30 9.4 SE 11 13 6 7 1013.8 1009.7 0.0
06/05:30am 21.7 17.3 0.3 24 9.9 SSE 13 15 7 8 1013.6 1009.5 0.0
06/05:00am 21.6 17.2 0.2 24 9.9 SSE 13 17 7 9 1013.4 1009.3 0.0
06/04:30am 21.7 17.5 -0.9 22 10.2 SSE 11 15 6 8 1012.9 1008.9 0.0
06/04:00am 22.3 17.2 -1.7 20 10.8 SSE 15 20 8 11 1012.6 1008.5 0.0
06/03:30am 22.5 17.4 -1.6 20 10.8 S 15 20 8 11 1012.6 1008.5 0.0
06/03:00am 22.7 17.2 -2.1 19 11.1 S 17 24 9 13 1012.4 1008.3 0.0
06/02:30am 23.3 17.2 -2.3 18 11.4 SSW 20 24 11 13 1012.1 1008.0 0.0
06/02:00am 23.5 17.6 -2.2 18 11.5 SSW 19 24 10 13 1011.9 1007.8 0.0
06/01:30am 23.7 17.5 -2.8 17 11.8 SSW 20 26 11 14 1011.7 1007.6 0.0
06/01:00am 23.8 17.6 -5.3 14 12.4 SSW 19 24 10 13 1011.7 1007.6 0.0
06/12:30am 24.4 17.5 -5.8 13 12.8 SSW 22 33 12 18 1011.8 1007.7 0.0
06/12:00am 25.1 18.5 -7.4 11 13.4 SSW 20 28 11 15 1011.8 1007.7 0.0
 
Date/Time
WST
Temp
°C
App
Temp
°C
Dew
Point
°C
Rel
Hum
%
Delta-T
°C
Wind Press
QNH
hPa
Press
MSL
hPa
Rain since
9am
mm
Dir  Spd
km/h
Gust
km/h
Spd
kts
Gust
kts
05/11:30pm 25.7 19.3 -6.9 11 13.7 SW 19 22 10 12 1011.9 1007.8 0.0
05/11:00pm 26.0 20.4 -6.7 11 13.8 SW 15 19 8 10 1011.9 1007.8 0.0
05/10:30pm 26.6 21.0 -6.2 11 14.0 SSW 15 20 8 11 1012.1 1008.0 0.0
05/10:00pm 26.9 21.3 -6.0 11 14.2 SSW 15 20 8 11 1012.1 1008.0 0.0
05/09:30pm 27.8 21.9 -5.3 11 14.5 SW 17 20 9 11 1011.9 1007.8 0.0
05/09:00pm 28.7 22.8 -5.9 10 15.2 SW 17 20 9 11 1011.5 1007.4 0.0
05/08:30pm 28.5 23.3 -6.0 10 15.1 WSW 13 15 7 8 1011.2 1007.1 0.0
05/08:00pm 29.8 24.7 -5.1 10 15.7 WSW 13 15 7 8 1010.6 1006.5 0.0
05/07:30pm 30.8 25.6 -5.7 9 16.3 SW 13 19 7 10 1010.1 1006.0 0.0
05/07:00pm 31.9 25.9 -6.4 8 17.1 WSW 17 24 9 13 1009.6 1005.5 0.0
05/06:30pm 32.9 26.4 -5.7 8 17.5 WSW 20 30 11 16 1008.9 1004.8 0.0
05/06:00pm 33.7 27.1 -6.8 7 18.2 WSW 20 28 11 15 1008.6 1004.5 0.0
05/05:30pm 34.4 27.9 -6.3 7 18.5 WSW 20 33 11 18 1008.1 1004.0 0.0
05/05:00pm 35.2 28.3 -5.7 7 19.0 SW 22 35 12 19 1007.9 1003.8 0.0
05/04:30pm 35.1 26.3 -5.8 7 18.9 WSW 32 43 17 23 1007.6 1003.4 0.0
05/04:00pm 35.3 28.3 -3.9 8 18.7 WSW 24 39 13 21 1007.6 1003.4 0.0
05/03:52pm 34.8 26.6 -4.3 8 18.4 WSW 30 50 16 27 1007.5 1003.3 0.0
05/03:30pm 36.1 28.5 -5.1 7 19.4 SW 26 39 14 21 1007.4 1003.2 0.0
05/03:12pm 35.6 26.5 -3.7 8 18.8 WSW 35 48 19 26 1007.4 1003.2 0.0
05/03:06pm 36.1 28.4 -3.3 8 19.0 W 28 48 15 26 1007.3 1003.1 0.0
05/03:00pm 36.5 29.4 -4.8 7 19.6 WSW 24 35 13 19 1007.3 1003.1 0.0
05/02:30pm 36.0 28.1 -5.2 7 19.3 WSW 28 43 15 23 1007.5 1003.3 0.0
05/02:00pm 36.1 28.2 -5.1 7 19.4 W 28 46 15 25 1007.5 1003.3 0.0
05/01:49pm 35.6 27.8 -3.7 8 18.8 W 28 46 15 25 1007.6 1003.4 0.0
05/01:30pm 35.5 29.2 -3.8 8 18.8 W 20 30 11 16 1007.5 1003.3 0.0
05/01:00pm 35.9 28.1 -3.5 8 19.0 W 28 43 15 23 1007.8 1003.7 0.0
05/12:30pm 35.5 29.0 -2.2 9 18.5 NW 22 37 12 20 1007.9 1003.8 0.0
05/12:09pm 36.1 29.3 -1.7 9 18.7 W 24 50 13 27 1007.9 1003.8 0.0
05/12:00pm 35.0 29.1 -1.1 10 18.0 WNW 20 35 11 19 1008.1 1004.0 0.0
05/11:30am 34.3 27.3 -0.4 11 17.4 W 26 44 14 24 1008.4 1004.3 0.0
05/11:00am 34.1 28.0 0.7 12 17.0 W 22 37 12 20 1008.5 1004.4 0.0
05/10:30am 34.3 29.0 3.0 14 16.5 WNW 20 32 11 17 1008.6 1004.5 0.0
05/10:00am 32.9 28.4 1.9 14 16.0 WNW 15 30 8 16 1008.8 1004.7 0.0
05/09:30am 32.1 29.9 7.7 22 13.7 WNW 9 13 5 7 1008.8 1004.7 0.0
05/09:00am 30.8 29.2 7.9 24 12.9 W 6 15 3 8 1008.8 1004.7 0.0
05/08:30am 29.0 27.5 9.2 29 11.3 NNE 7 15 4 8 1008.9 1004.8 0.0
05/08:00am 28.6 26.8 9.3 30 11.0 NE 9 15 5 8 1009.1 1005.0 0.0
05/07:30am 27.7 24.6 9.0 31 10.5 ENE 15 22 8 12 1008.9 1004.8 0.0
05/07:00am 26.8 23.3 8.7 32 10.1 ENE 17 24 9 13 1008.7 1004.6 0.0
05/06:30am 26.2 23.9 7.3 30 10.3 ESE 9 13 5 7 1008.8 1004.7 0.0
05/06:00am 24.5 22.2 2.6 24 10.9 SW 4 7 2 4 1008.7 1004.6 0.0
05/05:30am 23.0 20.4 0.8 23 10.5 SSW 4 7 2 4 1008.4 1004.3 0.0
05/05:00am 22.2 19.0 -0.5 22 10.4 SW 6 7 3 4 1008.1 1004.0 0.0
05/04:30am 23.3 19.1 -0.9 20 11.1 SSW 11 13 6 7 1007.8 1003.7 0.0
05/04:00am 23.2 19.3 -1.7 19 11.3 SSE 9 11 5 6 1007.5 1003.3 0.0
05/03:30am 24.0 19.7 -1.8 18 11.7 S 11 13 6 7 1007.4 1003.2 0.0
05/03:00am 24.4 19.6 -2.2 17 12.1 SSW 13 17 7 9 1007.3 1003.1 0.0
05/02:30am 24.7 20.0 -2.0 17 12.1 SSW 13 19 7 10 1006.9 1002.8 0.0
05/02:00am 24.7 20.4 -2.0 17 12.2 SW 11 13 6 7 1007.1 1003.0 0.0
05/01:30am 25.6 21.6 -2.1 16 12.7 SSW 9 11 5 6 1007.1 1003.0 0.0
05/01:00am 26.0 22.1 -1.7 16 12.8 SSW 9 11 5 6 1007.7 1003.5 0.0
05/12:30am 26.4 22.4 -2.3 15 13.2 SSW 9 11 5 6 1008.0 1003.9 0.0
05/12:00am 27.2 23.3 -1.7 15 13.5 SSE 9 11 5 6 1008.3 1004.2 0.0
 
Date/Time
WST
Temp
°C
App
Temp
°C
Dew
Point
°C
Rel
Hum
%
Delta-T
°C
Wind Press
QNH
hPa
Press
MSL
hPa
Rain since
9am
mm
Dir  Spd
km/h
Gust
km/h
Spd
kts
Gust
kts
04/11:30pm 27.8 23.4 -2.1 14 13.9 SSE 11 15 6 8 1008.2 1004.1 0.0
04/11:00pm 28.0 23.7 -2.0 14 14.0 SSE 11 15 6 8 1008.4 1004.3 0.0
04/10:30pm 28.8 24.2 -1.3 14 14.3 SSW 13 17 7 9 1008.4 1004.3 0.0
04/10:00pm 28.4 24.1 -1.6 14 14.2 SSW 11 15 6 8 1008.4 1004.3 0.0
04/09:30pm 28.6 24.3 -1.5 14 14.2 S 11 13 6 7 1008.4 1004.3 0.0
04/09:00pm 29.3 25.0 -1.9 13 14.8 S 11 15 6 8 1008.3 1004.2 0.0
04/08:30pm 30.1 25.7 -2.4 12 15.3 S 11 15 6 8 1008.3 1004.2 0.0
04/08:00pm 30.9 26.0 -3.0 11 15.9 SSW 13 17 7 9 1008.3 1004.2 0.0
04/07:30pm 31.6 27.2 -2.4 11 16.2 SSW 11 15 6 8 1008.2 1004.1 0.0
04/07:00pm 32.4 27.9 -3.1 10 16.8 SW 11 13 6 7 1008.1 1004.0 0.0
04/06:30pm 33.4 29.4 -2.3 10 17.2 SW 9 15 5 8 1007.9 1003.8 0.0

Other Formats:

Comma delimited format used in spreadsheet applications
http://www.bom.gov.au/fwo/IDW60801/IDW60801.99434.axf

JavaScript Object Notation format (JSON) in row-major order
http://www.bom.gov.au/fwo/IDW60801/IDW60801.99434.json